Alpine, Virginia
Current Conditions -  °F | °C
As of 4:15 PM on Monday 24 Nov 2014 (Local Time) from K8W2 Reporting Station
Clear Clear  
Wind Chill: 67°   Ceiling: Unl
Heat Index: 67°   Visibility: 10mi
Dew Point: 50°   Wind: 15mph
Humidity: 55%   Direction: 200°SSW
Pressure: 29.62"   Gusts: 23mph
Location:  38.6726°N, 78.6691°W
Report Text: K8W2 242115Z AUTO 20013G20KT 10SM CLR 20/10 A2962 RMK AO1 T01950102
Loading
Personal Weather Stations






























Interactive Weather Map New forecast layout! Learn more

10-Day Weather Forecast

Advertisements
Track Severe Weather on mobile